MST,Max TemperatureF,Mean TemperatureF,Min TemperatureF,Max Dew PointF,MeanDew PointF,Min DewpointF,Max Humidity, Mean Humidity, Min Humidity, Max Sea Level PressureIn, Mean Sea Level PressureIn, Min Sea Level PressureIn, Max VisibilityMiles, Mean VisibilityMiles, Min VisibilityMiles, Max Wind SpeedMPH, Mean Wind SpeedMPH, Max Gust SpeedMPH,PrecipitationIn, CloudCover, Events, WindDirDegrees
2012-11-1,63,47,31,36,32,28,96,66,36,29.96,29.86,29.78,10,6,0,31,6,38,0.00,5,Fog,251
2012-11-2,58,45,32,34,29,24,89,61,32,30.18,30.08,29.95,10,10,10,21,9,25,0.00,3,,244
2012-11-3,60,45,29,38,30,25,76,53,29,30.14,30.08,29.99,10,10,10,29,15,37,T,1,,213
2012-11-4,63,55,46,40,38,35,65,52,39,30.25,30.16,29.99,10,10,10,25,14,32,0.00,3,,235
2012-11-5,69,58,46,41,36,29,65,46,27,30.14,30.04,29.96,10,10,10,36,19,44,0.00,0,,244
2012-11-6,64,53,42,38,35,33,70,51,31,30.19,30.04,29.79,10,10,10,21,10,25,0.00,0,,202
2012-11-7,66,47,27,38,27,17,85,58,30,30.07,29.81,29.64,10,10,7,36,17,44,0.00,0,,255
2012-11-8,30,28,26,27,25,22,92,82,72,30.16,29.98,29.77,10,3,0,20,10,24,0.76,8,Fog-Snow,40
2012-11-9,28,19,10,25,13,5,92,83,74,30.17,29.93,29.78,6,2,0,28,18,32,0.35,8,Fog-Snow,333
2012-11-10,10,4,-3,5,2,-6,80,77,73,30.27,30.08,29.95,10,3,1,16,8,18,0.11,8,Snow,283
2012-11-11,27,11,-5,14,6,-11,87,72,57,30.27,30.23,29.97,10,10,10,22,15,26,0.00,0,,216
2012-11-12,39,33,26,28,22,16,64,60,56,30.23,30.19,30.13,10,10,5,35,25,43,0.00,3,,220
2012-11-13,42,39,35,29,27,25,70,63,55,30.21,30.17,30.10,10,10,10,24,16,29,0.00,2,,216
2012-11-14,43,37,30,30,27,23,78,69,59,30.28,30.15,30.08,10,10,10,25,13,29,0.00,1,,220
2012-11-15,44,36,28,27,24,20,78,64,49,30.30,30.19,30.02,10,10,10,24,13,26,0.00,0,,206
2012-11-16,48,40,32,32,27,21,70,60,49,30.00,29.96,29.93,10,10,10,23,13,28,0.00,1,,203
2012-11-17,53,46,38,34,31,29,76,59,41,29.99,29.87,29.64,10,10,10,23,15,28,0.00,0,,192
2012-11-18,52,42,32,34,25,18,61,45,29,30.01,29.81,29.57,10,10,10,33,16,40,0.00,1,,213
2012-11-19,57,46,34,29,24,17,52,41,30,30.01,29.88,29.73,10,10,10,37,20,44,0.00,0,,203
2012-11-20,63,55,47,37,32,30,71,52,32,29.78,29.74,29.70,10,10,10,36,19,45,T,1,Rain,216
2012-11-21,49,42,34,39,32,20,89,71,52,29.94,29.77,29.66,10,10,6,33,16,40,0.13,4,Rain,221
2012-11-22,36,28,19,22,18,14,91,72,52,30.60,30.36,29.96,10,8,5,33,9,40,0.00,3,,19
2012-11-23,54,40,26,24,20,15,74,52,29,30.51,30.21,29.96,10,10,10,31,19,40,0.00,0,,205
2012-11-24,52,39,26,32,28,22,92,64,36,30.10,30.01,29.93,10,7,1,25,10,31,0.04,4,Snow,234
2012-11-25,32,26,20,29,24,17,92,87,81,30.36,30.08,29.95,10,3,0,12,4,13,0.03,7,Fog-Snow,247
2012-11-26,36,27,18,22,17,13,84,68,52,30.37,30.28,30.16,10,10,10,18,11,23,0.00,0,,206
2012-11-27,44,36,27,23,19,15,63,51,39,30.21,30.14,30.03,10,10,10,17,11,23,0.00,0,,220
2012-11-28,57,43,29,27,23,18,85,54,22,30.02,29.94,29.86,10,10,10,22,11,26,0.00,0,,186
2012-11-29,53,41,29,34,29,26,92,65,38,29.91,29.83,29.72,10,10,10,24,15,31,0.00,2,,206
2012-11-30,56,50,43,36,32,28,65,52,38,29.72,29.62,29.52,10,10,10,30,16,38,0.00,2,,212